createdAt,value
2023-05-09T00:00:17.108Z,9.05
2023-05-09T00:02:43.862Z,9.00
2023-05-09T00:05:10.446Z,8.95
2023-05-09T00:07:36.979Z,8.88
2023-05-09T00:10:04.046Z,8.83
2023-05-09T00:12:30.678Z,8.79
2023-05-09T00:14:58.577Z,8.75
2023-05-09T00:17:25.590Z,8.72
2023-05-09T00:19:52.474Z,8.69
2023-05-09T00:22:20.100Z,8.68
2023-05-09T00:24:46.758Z,8.64
2023-05-09T00:27:13.371Z,8.63
2023-05-09T00:29:40.038Z,8.56
2023-05-09T00:32:08.127Z,8.55
2023-05-09T00:34:34.923Z,8.53
2023-05-09T00:37:01.428Z,8.51
2023-05-09T00:39:28.249Z,8.50
2023-05-09T00:41:55.933Z,8.48
2023-05-09T00:44:22.563Z,8.46
2023-05-09T00:46:49.337Z,8.45
2023-05-09T00:49:17.163Z,8.39
2023-05-09T00:51:43.868Z,8.37
2023-05-09T00:54:10.507Z,8.35
2023-05-09T00:56:37.235Z,8.35
2023-05-09T00:59:03.872Z,8.32
2023-05-09T01:01:30.414Z,8.28
2023-05-09T01:03:56.927Z,8.25
2023-05-09T01:06:32.742Z,8.22
2023-05-09T01:09:03.288Z,8.21
2023-05-09T01:11:34.430Z,8.19
2023-05-09T01:14:10.450Z,8.25
2023-05-09T01:16:41.273Z,8.29
2023-05-09T01:19:26.884Z,8.38
2023-05-09T01:21:56.344Z,8.44
2023-05-09T01:24:40.076Z,8.47
2023-05-09T01:27:21.040Z,8.51
2023-05-09T01:29:54.124Z,8.59
2023-05-09T01:32:25.194Z,8.64
2023-05-09T01:34:54.544Z,8.70
2023-05-09T01:37:25.939Z,8.74
2023-05-09T01:39:55.840Z,8.77
2023-05-09T01:42:23.971Z,8.81
2023-05-09T01:44:54.108Z,8.85
2023-05-09T01:47:21.154Z,8.90
2023-05-09T01:49:48.170Z,8.92
2023-05-09T01:52:18.460Z,8.94
2023-05-09T01:54:46.037Z,8.99
2023-05-09T01:57:14.454Z,9.01
2023-05-09T01:59:43.141Z,9.05
2023-05-09T02:02:12.118Z,9.07
2023-05-09T02:04:41.367Z,9.08
2023-05-09T02:07:08.268Z,9.12
2023-05-09T02:09:35.033Z,9.14
2023-05-09T02:12:01.761Z,9.20
2023-05-09T02:14:28.245Z,9.25
2023-05-09T02:16:54.885Z,9.33
2023-05-09T02:19:22.931Z,9.42
2023-05-09T02:21:49.730Z,9.50
2023-05-09T02:24:16.265Z,9.56
2023-05-09T02:26:43.264Z,9.64
2023-05-09T02:29:10.852Z,9.71
2023-05-09T02:31:40.995Z,9.72
2023-05-09T02:34:09.735Z,9.68
2023-05-09T02:36:38.413Z,9.66
2023-05-09T02:39:05.024Z,9.63
2023-05-09T02:41:31.669Z,9.64
2023-05-09T02:43:58.193Z,9.64
2023-05-09T02:46:25.087Z,9.59
2023-05-09T02:48:51.573Z,9.53
2023-05-09T02:51:18.244Z,9.43
2023-05-09T02:53:46.280Z,9.40
2023-05-09T02:56:12.786Z,9.41
2023-05-09T02:58:39.430Z,9.42
2023-05-09T03:01:05.915Z,9.39
2023-05-09T03:03:32.782Z,9.35
2023-05-09T03:05:59.334Z,9.34
2023-05-09T03:08:25.876Z,9.30
2023-05-09T03:10:53.891Z,9.29
2023-05-09T03:13:20.414Z,9.22
2023-05-09T03:15:46.983Z,9.16
2023-05-09T03:18:13.740Z,9.09
2023-05-09T03:20:40.534Z,9.09
2023-05-09T03:23:07.072Z,9.06
2023-05-09T03:25:33.766Z,9.04
2023-05-09T03:28:01.877Z,9.04
2023-05-09T03:30:28.378Z,9.04
2023-05-09T03:32:54.939Z,9.07
2023-05-09T03:35:21.628Z,9.14
2023-05-09T03:37:48.262Z,9.20
2023-05-09T03:40:15.061Z,9.27
2023-05-09T03:42:41.512Z,9.31
2023-05-09T03:45:10.687Z,9.30
2023-05-09T03:47:37.264Z,9.33
2023-05-09T03:50:04.226Z,9.28
2023-05-09T03:52:30.701Z,9.30
2023-05-09T03:54:57.219Z,9.28
2023-05-09T03:57:23.898Z,9.26
2023-05-09T03:59:50.523Z,9.24
2023-05-09T04:02:18.502Z,9.21
2023-05-09T04:04:45.310Z,9.21
2023-05-09T04:07:11.872Z,9.27
2023-05-09T04:09:38.548Z,9.34
2023-05-09T04:12:05.603Z,9.44
2023-05-09T04:14:32.154Z,9.56
2023-05-09T04:16:58.685Z,9.67
2023-05-09T04:19:26.640Z,9.81
2023-05-09T04:21:53.177Z,9.92
2023-05-09T04:24:19.857Z,9.99
2023-05-09T04:26:46.412Z,10.03
2023-05-09T04:29:12.976Z,10.08
2023-05-09T04:31:39.543Z,10.15
2023-05-09T04:34:06.199Z,10.16
2023-05-09T04:36:34.102Z,10.19
2023-05-09T04:39:00.998Z,10.24
2023-05-09T04:41:27.518Z,10.31
2023-05-09T04:43:54.094Z,10.36
2023-05-09T04:46:20.798Z,10.40
2023-05-09T04:48:47.976Z,10.46
2023-05-09T04:51:14.645Z,10.50
2023-05-09T04:53:42.478Z,10.57
2023-05-09T04:56:09.000Z,10.71
2023-05-09T04:58:35.623Z,10.87
2023-05-09T05:01:02.155Z,11.01
2023-05-09T05:03:28.779Z,11.17
2023-05-09T05:05:55.318Z,11.30
2023-05-09T05:08:21.811Z,11.36
2023-05-09T05:10:50.044Z,11.43
2023-05-09T05:13:17.054Z,11.48
2023-05-09T05:15:43.565Z,11.57
2023-05-09T05:18:10.180Z,11.65
2023-05-09T05:20:36.698Z,11.71
2023-05-09T05:23:03.385Z,11.80
2023-05-09T05:25:29.942Z,11.85
2023-05-09T05:27:57.889Z,11.87
2023-05-09T05:30:24.577Z,11.92
2023-05-09T05:32:51.169Z,11.92
2023-05-09T05:35:17.858Z,12.02
2023-05-09T05:37:44.357Z,12.15
2023-05-09T05:40:11.357Z,12.30
2023-05-09T05:42:37.852Z,12.36
2023-05-09T05:45:07.097Z,12.41
2023-05-09T05:47:34.498Z,12.49
2023-05-09T05:50:02.664Z,12.47
2023-05-09T05:52:29.520Z,12.37
2023-05-09T05:54:56.259Z,12.27
2023-05-09T05:57:22.955Z,12.24
2023-05-09T05:59:50.346Z,12.22
2023-05-09T06:02:18.755Z,12.26
2023-05-09T06:04:45.254Z,12.31
2023-05-09T06:07:12.575Z,12.48
2023-05-09T06:09:39.302Z,12.54
2023-05-09T06:12:06.048Z,12.67
2023-05-09T06:14:32.638Z,12.81
2023-05-09T06:16:59.216Z,12.96
2023-05-09T06:19:27.327Z,13.10
2023-05-09T06:21:53.889Z,13.17
2023-05-09T06:24:34.618Z,13.20
2023-05-09T06:27:09.606Z,13.28
2023-05-09T06:29:36.133Z,13.38
2023-05-09T06:32:02.622Z,13.51
2023-05-09T06:34:30.454Z,13.68
2023-05-09T06:36:56.993Z,13.85
2023-05-09T06:39:23.512Z,14.02
2023-05-09T06:41:50.201Z,14.12
2023-05-09T06:44:16.687Z,14.20
2023-05-09T06:46:43.399Z,14.34
2023-05-09T06:49:09.948Z,14.42
2023-05-09T06:51:37.794Z,14.39
2023-05-09T06:54:04.545Z,14.33
2023-05-09T06:56:31.076Z,14.40
2023-05-09T06:58:57.668Z,14.40
2023-05-09T07:01:24.261Z,14.39
2023-05-09T07:03:53.357Z,14.51
2023-05-09T07:06:24.567Z,14.60
2023-05-09T07:08:57.872Z,14.59
2023-05-09T07:11:28.092Z,14.44
2023-05-09T07:13:54.601Z,14.34
2023-05-09T07:16:21.281Z,14.22
2023-05-09T07:18:47.956Z,14.11
2023-05-09T07:21:14.633Z,14.12
2023-05-09T07:23:41.171Z,14.25
2023-05-09T07:26:09.089Z,14.41
2023-05-09T07:28:35.640Z,14.53
2023-05-09T07:31:02.194Z,14.53
2023-05-09T07:33:28.795Z,14.55
2023-05-09T07:35:55.323Z,14.69
2023-05-09T07:38:21.954Z,14.76
2023-05-09T07:40:54.561Z,14.93
2023-05-09T07:43:22.615Z,14.97
2023-05-09T07:45:49.354Z,14.96
2023-05-09T07:48:16.070Z,15.03
2023-05-09T07:50:42.510Z,15.10
2023-05-09T07:53:09.219Z,15.17
2023-05-09T07:55:35.735Z,15.41
2023-05-09T07:58:02.312Z,15.56
2023-05-09T08:00:30.239Z,15.60
2023-05-09T08:02:56.977Z,15.69
2023-05-09T08:05:23.597Z,15.77
2023-05-09T08:07:50.124Z,15.96
2023-05-09T08:10:16.691Z,16.09
2023-05-09T08:12:43.457Z,16.24
2023-05-09T08:15:10.916Z,16.52
2023-05-09T08:17:38.974Z,16.70
2023-05-09T08:20:06.269Z,17.03
2023-05-09T08:22:32.805Z,17.19
2023-05-09T08:24:59.264Z,17.31
2023-05-09T08:27:25.806Z,17.39
2023-05-09T08:29:52.334Z,17.68
2023-05-09T08:32:18.878Z,18.08
2023-05-09T08:34:46.711Z,18.51
2023-05-09T08:37:15.193Z,18.77
2023-05-09T08:39:42.592Z,19.46
2023-05-09T08:42:10.038Z,19.88
2023-05-09T08:44:36.782Z,19.75
2023-05-09T08:47:04.283Z,19.76
2023-05-09T08:49:31.625Z,19.89
2023-05-09T08:51:59.988Z,19.66
2023-05-09T08:54:27.052Z,19.81
2023-05-09T08:56:53.916Z,19.78
2023-05-09T08:59:20.946Z,19.92
2023-05-09T09:01:47.882Z,19.63
2023-05-09T09:04:14.633Z,19.64
2023-05-09T09:06:41.852Z,20.05
2023-05-09T09:09:12.907Z,20.20
2023-05-09T09:11:40.807Z,20.11
2023-05-09T09:14:12.447Z,20.20
2023-05-09T09:16:41.031Z,20.16
2023-05-09T09:19:11.732Z,20.09
2023-05-09T09:21:41.146Z,20.16
2023-05-09T09:24:12.006Z,20.52
2023-05-09T09:26:46.311Z,20.78
2023-05-09T09:29:13.408Z,21.02
2023-05-09T09:31:44.825Z,21.12
2023-05-09T09:34:12.995Z,21.20
2023-05-09T09:36:41.429Z,21.23
2023-05-09T09:39:09.265Z,21.55
2023-05-09T09:41:36.986Z,21.36
2023-05-09T09:44:07.310Z,21.13
2023-05-09T09:46:41.556Z,21.10
2023-05-09T09:49:09.592Z,21.29
2023-05-09T09:51:36.133Z,21.60
2023-05-09T09:54:03.092Z,22.02
2023-05-09T09:56:43.596Z,22.06
2023-05-09T09:59:11.577Z,22.55
2023-05-09T10:01:58.310Z,22.33
2023-05-09T10:04:26.335Z,22.87
2023-05-09T10:06:54.044Z,22.17
2023-05-09T10:09:21.869Z,22.82
2023-05-09T10:11:51.265Z,22.64
2023-05-09T10:14:19.211Z,22.61
2023-05-09T10:16:47.646Z,22.64
2023-05-09T10:19:18.087Z,21.94
2023-05-09T10:21:49.537Z,22.61
2023-05-09T10:24:18.197Z,23.07
2023-05-09T10:26:49.504Z,23.33
2023-05-09T10:29:22.660Z,23.82
2023-05-09T10:31:54.161Z,23.59
2023-05-09T10:34:22.607Z,23.46
2023-05-09T10:36:49.670Z,23.31
2023-05-09T10:39:17.081Z,23.01
2023-05-09T10:41:44.038Z,22.76
2023-05-09T10:44:10.734Z,22.45
2023-05-09T10:46:39.227Z,22.88
2023-05-09T10:49:06.880Z,22.99
2023-05-09T10:51:33.567Z,22.88
2023-05-09T10:54:00.148Z,22.53
2023-05-09T10:56:29.674Z,22.68
2023-05-09T10:58:56.444Z,23.00
2023-05-09T11:01:31.033Z,23.09
2023-05-09T11:03:59.318Z,23.92
2023-05-09T11:06:43.706Z,24.39
2023-05-09T11:09:25.847Z,24.48
2023-05-09T11:11:53.168Z,24.62
2023-05-09T11:14:30.191Z,23.94
2023-05-09T11:17:00.811Z,23.66
2023-05-09T11:19:53.850Z,23.22
2023-05-09T11:22:22.347Z,22.67
2023-05-09T11:24:50.528Z,22.72
2023-05-09T11:27:20.154Z,23.32
2023-05-09T11:29:50.854Z,24.34
2023-05-09T11:32:18.330Z,24.53
2023-05-09T11:34:46.747Z,24.93
2023-05-09T11:37:17.609Z,24.80
2023-05-09T11:39:56.161Z,24.27
2023-05-09T11:42:23.729Z,24.14
2023-05-09T11:44:51.001Z,24.01
2023-05-09T11:47:18.037Z,24.17
2023-05-09T11:49:45.845Z,24.40
2023-05-09T11:52:12.432Z,24.61
2023-05-09T11:54:39.183Z,24.59
2023-05-09T11:57:06.274Z,24.89
2023-05-09T11:59:33.695Z,25.26
2023-05-09T12:02:03.230Z,25.40
2023-05-09T12:04:30.651Z,25.61
2023-05-09T12:06:59.714Z,25.67
2023-05-09T12:09:29.799Z,25.04
2023-05-09T12:11:56.327Z,24.27
2023-05-09T12:14:29.855Z,23.80
2023-05-09T12:16:56.905Z,24.02
2023-05-09T12:19:24.554Z,23.51
2023-05-09T12:21:54.906Z,23.31
2023-05-09T12:24:22.890Z,23.01
2023-05-09T12:26:50.243Z,22.66
2023-05-09T12:29:17.575Z,22.57
2023-05-09T12:31:44.665Z,22.94
2023-05-09T12:34:11.456Z,22.84
2023-05-09T12:36:38.449Z,23.30
2023-05-09T12:39:09.178Z,23.52
2023-05-09T12:41:50.119Z,24.18
2023-05-09T12:44:27.367Z,24.00
2023-05-09T12:46:56.608Z,24.00
2023-05-09T12:49:23.814Z,24.03
2023-05-09T12:51:51.556Z,24.33
2023-05-09T12:54:20.688Z,24.45
2023-05-09T12:56:48.696Z,24.27
2023-05-09T12:59:20.980Z,24.52
2023-05-09T13:01:51.873Z,24.06
2023-05-09T13:04:20.270Z,24.26
2023-05-09T13:06:51.033Z,24.65
2023-05-09T13:09:18.490Z,24.53
2023-05-09T13:11:45.446Z,24.13
2023-05-09T13:14:13.689Z,24.29
2023-05-09T13:16:40.298Z,24.71
2023-05-09T13:19:07.247Z,25.10
2023-05-09T13:21:34.468Z,25.44
2023-05-09T13:24:01.153Z,25.21
2023-05-09T13:26:27.924Z,25.58
2023-05-09T13:28:54.386Z,25.54
2023-05-09T13:31:22.593Z,25.74
2023-05-09T13:33:51.574Z,26.33
2023-05-09T13:36:18.858Z,26.89
2023-05-09T13:38:45.536Z,27.08
2023-05-09T13:41:12.318Z,27.01
2023-05-09T13:43:39.771Z,27.85
2023-05-09T13:46:06.540Z,27.39
2023-05-09T13:48:34.560Z,27.23
2023-05-09T13:51:01.019Z,27.50
2023-05-09T13:53:27.661Z,27.65
2023-05-09T13:55:54.214Z,27.58
2023-05-09T13:58:20.850Z,26.79
2023-05-09T14:00:47.306Z,26.77
2023-05-09T14:03:13.846Z,26.28
2023-05-09T14:05:41.869Z,26.47
2023-05-09T14:08:08.444Z,25.86
2023-05-09T14:10:34.958Z,25.24
2023-05-09T14:13:01.509Z,24.62
2023-05-09T14:15:28.071Z,24.87
2023-05-09T14:17:54.557Z,25.56
2023-05-09T14:20:21.223Z,26.24
2023-05-09T14:22:49.305Z,27.12
2023-05-09T14:25:15.891Z,27.27
2023-05-09T14:27:42.427Z,26.72
2023-05-09T14:30:09.988Z,25.99
2023-05-09T14:32:36.492Z,26.70
2023-05-09T14:35:03.235Z,27.05
2023-05-09T14:37:29.808Z,27.54
2023-05-09T14:39:57.656Z,27.56
2023-05-09T14:42:24.143Z,27.06
2023-05-09T14:44:50.775Z,26.93
2023-05-09T14:47:17.341Z,27.33
2023-05-09T14:49:43.879Z,26.75
2023-05-09T14:52:10.382Z,26.17
2023-05-09T14:54:37.069Z,25.26
2023-05-09T14:57:04.999Z,24.92
2023-05-09T14:59:31.701Z,24.92
2023-05-09T15:01:58.330Z,24.81
2023-05-09T15:04:25.167Z,24.25
2023-05-09T15:06:51.754Z,24.24
2023-05-09T15:09:18.441Z,24.19
2023-05-09T15:11:48.229Z,24.84
2023-05-09T15:14:17.178Z,25.12
2023-05-09T15:16:43.713Z,25.57
2023-05-09T15:19:10.255Z,24.90
2023-05-09T15:21:36.803Z,25.58
2023-05-09T15:24:04.590Z,25.27
2023-05-09T15:26:31.094Z,23.78
2023-05-09T15:28:57.685Z,23.17
2023-05-09T15:31:25.817Z,23.58
2023-05-09T15:33:52.480Z,24.59
2023-05-09T15:36:19.172Z,24.57
2023-05-09T15:38:45.654Z,24.70
2023-05-09T15:41:12.121Z,24.81
2023-05-09T15:43:38.587Z,24.59
2023-05-09T15:46:05.262Z,24.22
2023-05-09T15:48:33.288Z,24.40
2023-05-09T15:50:59.779Z,24.43
2023-05-09T15:53:26.476Z,24.60
2023-05-09T15:55:52.994Z,24.62
2023-05-09T15:58:19.559Z,24.77
2023-05-09T16:00:46.062Z,24.82
2023-05-09T16:03:12.655Z,24.44
2023-05-09T16:05:40.713Z,24.68
2023-05-09T16:08:07.352Z,24.51
2023-05-09T16:10:33.913Z,24.64
2023-05-09T16:13:00.451Z,24.47
2023-05-09T16:15:27.143Z,24.71
2023-05-09T16:17:53.599Z,24.21
2023-05-09T16:20:20.265Z,24.39
2023-05-09T16:22:48.256Z,24.49
2023-05-09T16:25:16.047Z,24.27
2023-05-09T16:27:42.616Z,24.32
2023-05-09T16:30:10.150Z,24.47
2023-05-09T16:32:36.730Z,24.51
2023-05-09T16:35:03.659Z,24.26
2023-05-09T16:37:30.209Z,24.10
2023-05-09T16:39:58.042Z,23.89
2023-05-09T16:42:24.596Z,24.06
2023-05-09T16:44:51.184Z,23.75
2023-05-09T16:47:17.762Z,23.67
2023-05-09T16:49:44.287Z,23.12
2023-05-09T16:52:10.756Z,23.01
2023-05-09T16:54:37.283Z,22.79
2023-05-09T16:57:05.211Z,22.60
2023-05-09T16:59:31.729Z,22.36
2023-05-09T17:01:58.311Z,22.29
2023-05-09T17:04:25.120Z,21.89
2023-05-09T17:06:51.647Z,21.78
2023-05-09T17:09:18.559Z,21.61
2023-05-09T17:11:45.232Z,21.23
2023-05-09T17:14:13.089Z,21.11
2023-05-09T17:16:39.657Z,21.02
2023-05-09T17:19:06.191Z,21.00
2023-05-09T17:21:32.757Z,20.80
2023-05-09T17:23:59.309Z,20.65
2023-05-09T17:26:27.338Z,20.62
2023-05-09T17:28:53.847Z,20.59
2023-05-09T17:31:21.826Z,20.50
2023-05-09T17:33:48.402Z,20.39
2023-05-09T17:36:15.068Z,20.34
2023-05-09T17:38:41.607Z,20.27
2023-05-09T17:41:08.157Z,20.23
2023-05-09T17:43:34.645Z,20.18
2023-05-09T17:46:01.209Z,20.11
2023-05-09T17:48:29.027Z,20.07
2023-05-09T17:50:55.505Z,20.01
2023-05-09T17:53:22.128Z,19.86
2023-05-09T17:55:48.618Z,19.81
2023-05-09T17:58:15.300Z,19.67
2023-05-09T18:00:41.812Z,19.56
2023-05-09T18:03:08.455Z,19.48
2023-05-09T18:05:36.409Z,19.35
2023-05-09T18:08:02.971Z,19.21
2023-05-09T18:10:29.638Z,19.15
2023-05-09T18:12:56.196Z,18.99
2023-05-09T18:15:24.289Z,18.89
2023-05-09T18:17:50.817Z,18.81
2023-05-09T18:20:17.665Z,18.76
2023-05-09T18:22:46.767Z,18.69
2023-05-09T18:25:13.436Z,18.61
2023-05-09T18:27:39.899Z,18.52
2023-05-09T18:30:07.916Z,18.34
2023-05-09T18:32:34.485Z,18.17
2023-05-09T18:35:01.169Z,18.05
2023-05-09T18:37:27.654Z,17.94
2023-05-09T18:39:55.537Z,17.87
2023-05-09T18:42:22.034Z,17.76
2023-05-09T18:44:48.531Z,17.65
2023-05-09T18:47:15.107Z,17.54
2023-05-09T18:49:41.755Z,17.43
2023-05-09T18:52:08.499Z,17.28
2023-05-09T18:54:35.043Z,17.16
2023-05-09T18:57:03.193Z,17.04
2023-05-09T18:59:29.670Z,16.96
2023-05-09T19:01:56.152Z,16.84
2023-05-09T19:04:22.766Z,16.75
2023-05-09T19:06:49.550Z,16.68
2023-05-09T19:09:16.105Z,16.60
2023-05-09T19:11:42.662Z,16.45
2023-05-09T19:14:10.527Z,16.46
2023-05-09T19:16:37.172Z,16.41
2023-05-09T19:19:03.641Z,16.37
2023-05-09T19:21:30.364Z,16.30
2023-05-09T19:23:56.893Z,16.22
2023-05-09T19:26:23.383Z,16.19
2023-05-09T19:28:49.962Z,16.15
2023-05-09T19:31:18.095Z,16.10
2023-05-09T19:33:44.691Z,16.06
2023-05-09T19:36:11.469Z,15.95
2023-05-09T19:38:38.034Z,15.87
2023-05-09T19:41:04.518Z,15.77
2023-05-09T19:43:31.050Z,15.71
2023-05-09T19:45:57.590Z,15.65
2023-05-09T19:48:25.582Z,15.61
2023-05-09T19:50:56.260Z,15.59
2023-05-09T19:53:22.910Z,15.55
2023-05-09T19:55:49.389Z,15.51
2023-05-09T19:58:17.676Z,15.38
2023-05-09T20:00:44.565Z,15.29
2023-05-09T20:03:11.195Z,15.24
2023-05-09T20:05:39.119Z,15.19
2023-05-09T20:08:05.843Z,15.17
2023-05-09T20:10:32.364Z,15.16
2023-05-09T20:12:58.880Z,15.15
2023-05-09T20:15:25.716Z,15.12
2023-05-09T20:17:52.265Z,15.12
2023-05-09T20:20:19.037Z,15.12
2023-05-09T20:22:47.045Z,15.09
2023-05-09T20:25:13.691Z,14.98
2023-05-09T20:27:40.293Z,14.96
2023-05-09T20:30:07.894Z,15.17
2023-05-09T20:32:34.451Z,15.23
2023-05-09T20:35:00.975Z,15.31
2023-05-09T20:37:27.495Z,15.44
2023-05-09T20:39:55.353Z,15.48
2023-05-09T20:42:22.039Z,15.51
2023-05-09T20:44:48.606Z,15.48
2023-05-09T20:47:15.156Z,15.46
2023-05-09T20:49:41.657Z,15.43
2023-05-09T20:52:08.438Z,15.39
2023-05-09T20:54:35.045Z,15.33
2023-05-09T20:57:03.231Z,15.32
2023-05-09T20:59:29.757Z,15.27
2023-05-09T21:01:56.367Z,15.23
2023-05-09T21:04:22.907Z,15.19
2023-05-09T21:06:49.679Z,15.13
2023-05-09T21:09:16.337Z,15.14
2023-05-09T21:11:42.821Z,15.12
2023-05-09T21:14:10.782Z,15.07
2023-05-09T21:16:37.383Z,15.06
2023-05-09T21:19:03.991Z,15.02
2023-05-09T21:21:30.983Z,14.94
2023-05-09T21:23:57.477Z,14.94
2023-05-09T21:26:24.048Z,14.87
2023-05-09T21:28:50.886Z,14.85
2023-05-09T21:31:18.901Z,14.78
2023-05-09T21:33:45.435Z,14.75
2023-05-09T21:36:11.941Z,14.66
2023-05-09T21:38:38.593Z,14.64
2023-05-09T21:41:05.367Z,14.59
2023-05-09T21:43:32.023Z,14.54
2023-05-09T21:45:58.499Z,14.53
2023-05-09T21:48:26.344Z,14.49
2023-05-09T21:50:52.958Z,14.47
2023-05-09T21:53:19.469Z,14.43
2023-05-09T21:55:46.004Z,14.40
2023-05-09T21:58:12.616Z,14.35
2023-05-09T22:00:39.211Z,14.34
2023-05-09T22:03:05.920Z,14.30
2023-05-09T22:05:33.820Z,14.26
2023-05-09T22:08:00.478Z,14.26
2023-05-09T22:10:27.147Z,14.27
2023-05-09T22:12:53.666Z,14.24
2023-05-09T22:15:20.552Z,14.24
2023-05-09T22:17:47.165Z,14.18
2023-05-09T22:20:14.043Z,14.16
2023-05-09T22:22:42.053Z,14.16
2023-05-09T22:25:09.216Z,14.12
2023-05-09T22:27:35.785Z,14.14
2023-05-09T22:30:02.317Z,14.07
2023-05-09T22:32:28.894Z,14.07
2023-05-09T22:34:55.410Z,14.02
2023-05-09T22:37:21.977Z,13.96
2023-05-09T22:39:49.924Z,13.94
2023-05-09T22:42:16.447Z,13.92
2023-05-09T22:44:43.090Z,13.87
2023-05-09T22:47:09.604Z,13.85
2023-05-09T22:49:36.126Z,13.83
2023-05-09T22:52:02.761Z,13.81
2023-05-09T22:54:29.300Z,13.83
2023-05-09T22:56:57.103Z,13.81
2023-05-09T22:59:23.692Z,13.81
2023-05-09T23:01:50.341Z,13.80
2023-05-09T23:04:16.968Z,13.79
2023-05-09T23:06:43.449Z,13.75
2023-05-09T23:09:09.999Z,13.75
2023-05-09T23:11:36.597Z,13.78
2023-05-09T23:14:04.618Z,13.76
2023-05-09T23:16:31.091Z,13.72
2023-05-09T23:18:57.640Z,13.71
2023-05-09T23:21:24.182Z,13.67
2023-05-09T23:23:50.650Z,13.65
2023-05-09T23:26:17.230Z,13.62
2023-05-09T23:28:43.679Z,13.55
2023-05-09T23:31:15.219Z,13.51
2023-05-09T23:33:41.775Z,13.46
2023-05-09T23:36:09.341Z,13.45
2023-05-09T23:38:35.942Z,13.42
2023-05-09T23:41:04.524Z,13.37
2023-05-09T23:43:30.996Z,13.36
2023-05-09T23:45:57.482Z,13.36
2023-05-09T23:48:25.527Z,13.32
2023-05-09T23:50:52.095Z,13.29
2023-05-09T23:53:18.540Z,13.24
2023-05-09T23:55:45.076Z,13.22
2023-05-09T23:58:12.246Z,13.25
